createdAt,value
2022-12-28T00:01:27.223Z,2.80
2022-12-28T00:03:29.209Z,2.78
2022-12-28T00:05:31.120Z,2.76
2022-12-28T00:07:32.987Z,2.72
2022-12-28T00:09:35.866Z,2.74
2022-12-28T00:11:38.209Z,2.72
2022-12-28T00:13:40.159Z,2.70
2022-12-28T00:15:42.029Z,2.70
2022-12-28T00:17:43.902Z,2.63
2022-12-28T00:19:45.931Z,2.63
2022-12-28T00:21:47.977Z,2.66
2022-12-28T00:23:54.378Z,2.62
2022-12-28T00:26:10.423Z,2.71
2022-12-28T00:28:12.358Z,2.71
2022-12-28T00:30:14.498Z,2.68
2022-12-28T00:32:16.397Z,2.64
2022-12-28T00:34:18.295Z,2.61
2022-12-28T00:36:20.225Z,2.61
2022-12-28T00:38:22.440Z,2.63
2022-12-28T00:40:24.434Z,2.62
2022-12-28T00:42:27.366Z,2.59
2022-12-28T00:44:30.162Z,2.58
2022-12-28T00:46:33.035Z,2.54
2022-12-28T00:48:34.974Z,2.58
2022-12-28T00:50:36.932Z,2.47
2022-12-28T00:52:38.911Z,2.52
2022-12-28T00:54:41.828Z,2.50
2022-12-28T00:56:43.776Z,2.49
2022-12-28T00:58:45.885Z,2.46
2022-12-28T01:00:49.557Z,2.46
2022-12-28T01:02:51.686Z,2.46
2022-12-28T01:04:56.112Z,2.37
2022-12-28T01:06:58.998Z,2.41
2022-12-28T01:09:00.888Z,2.32
2022-12-28T01:11:12.309Z,2.28
2022-12-28T01:13:14.182Z,2.34
2022-12-28T01:15:16.163Z,2.35
2022-12-28T01:17:18.033Z,2.22
2022-12-28T01:19:23.401Z,2.19
2022-12-28T01:21:29.421Z,2.20
2022-12-28T01:23:31.279Z,2.12
2022-12-28T01:25:34.051Z,2.13
2022-12-28T01:27:36.012Z,2.09
2022-12-28T01:29:37.883Z,2.08
2022-12-28T01:31:39.820Z,2.16
2022-12-28T01:33:42.253Z,2.15
2022-12-28T01:35:44.076Z,2.20
2022-12-28T01:37:45.904Z,2.22
2022-12-28T01:39:47.849Z,2.26
2022-12-28T01:41:50.052Z,2.23
2022-12-28T01:43:54.972Z,2.17
2022-12-28T01:45:56.980Z,2.24
2022-12-28T01:47:58.973Z,2.17
2022-12-28T01:50:08.744Z,2.21
2022-12-28T01:52:20.000Z,2.12
2022-12-28T01:54:26.649Z,2.01
2022-12-28T01:56:31.670Z,2.05
2022-12-28T01:58:35.734Z,2.07
2022-12-28T02:00:37.757Z,2.11
2022-12-28T02:02:44.655Z,2.03
2022-12-28T02:04:47.775Z,2.03
2022-12-28T02:06:49.762Z,1.99
2022-12-28T02:09:19.775Z,1.85
2022-12-28T02:11:22.059Z,1.79
2022-12-28T02:13:25.664Z,1.70
2022-12-28T02:15:27.793Z,1.58
2022-12-28T02:17:30.030Z,1.56
2022-12-28T02:19:46.216Z,1.41
2022-12-28T02:22:01.181Z,1.32
2022-12-28T02:24:24.239Z,1.27
2022-12-28T02:26:52.576Z,1.22
2022-12-28T02:29:22.474Z,1.11
2022-12-28T02:31:39.947Z,1.19
2022-12-28T02:33:58.932Z,1.04
2022-12-28T02:36:18.251Z,1.19
2022-12-28T02:38:40.621Z,1.20
2022-12-28T02:41:14.289Z,1.05
2022-12-28T02:43:17.477Z,1.04
2022-12-28T02:45:56.314Z,1.00
2022-12-28T02:48:30.405Z,0.93
2022-12-28T02:50:46.102Z,0.92
2022-12-28T02:52:57.028Z,0.81
2022-12-28T02:55:38.744Z,0.89
2022-12-28T02:57:58.735Z,0.75
2022-12-28T03:00:18.170Z,0.60
2022-12-28T03:02:49.345Z,0.61
2022-12-28T03:05:02.275Z,0.67
2022-12-28T03:07:28.125Z,0.62
2022-12-28T03:09:44.826Z,0.52
2022-12-28T03:12:15.520Z,0.56
2022-12-28T03:14:24.979Z,0.49
2022-12-28T03:17:06.686Z,0.53
2022-12-28T03:19:29.455Z,0.55
2022-12-28T03:21:52.206Z,0.48
2022-12-28T03:24:15.437Z,0.49
2022-12-28T03:26:41.021Z,0.48
2022-12-28T03:29:03.106Z,0.45
2022-12-28T03:31:13.582Z,0.38
2022-12-28T03:33:15.680Z,0.30
2022-12-28T03:35:22.828Z,0.34
2022-12-28T03:37:43.598Z,0.29
2022-12-28T03:39:53.253Z,0.24
2022-12-28T03:42:24.951Z,0.34
2022-12-28T03:44:33.129Z,0.27
2022-12-28T03:46:46.619Z,0.22
2022-12-28T03:48:50.837Z,0.13
2022-12-28T03:50:55.212Z,0.14
2022-12-28T03:52:59.455Z,0.10
2022-12-28T03:55:01.437Z,0.01
2022-12-28T03:57:03.502Z,-0.02
2022-12-28T03:59:05.369Z,-0.05
2022-12-28T04:01:07.360Z,-0.10
2022-12-28T04:03:09.372Z,-0.11
2022-12-28T04:05:11.315Z,-0.21
2022-12-28T04:07:13.208Z,-0.22
2022-12-28T04:09:15.344Z,-0.28
2022-12-28T04:11:18.248Z,-0.33
2022-12-28T04:13:20.222Z,-0.28
2022-12-28T04:15:22.041Z,-0.27
2022-12-28T04:17:24.976Z,-0.33
2022-12-28T04:19:26.898Z,-0.38
2022-12-28T04:21:28.805Z,-0.40
2022-12-28T04:23:31.977Z,-0.43
2022-12-28T04:25:33.869Z,-0.41
2022-12-28T04:27:35.708Z,-0.37
2022-12-28T04:29:37.629Z,-0.38
2022-12-28T04:31:39.567Z,-0.41
2022-12-28T04:33:41.516Z,-0.41
2022-12-28T04:35:44.389Z,-0.40
2022-12-28T04:37:47.437Z,-0.35
2022-12-28T04:39:55.272Z,-0.31
2022-12-28T04:41:59.086Z,-0.28
2022-12-28T04:44:01.063Z,-0.32
2022-12-28T04:46:05.867Z,-0.30
2022-12-28T04:48:07.877Z,-0.38
2022-12-28T04:50:10.869Z,-0.33
2022-12-28T04:52:12.903Z,-0.40
2022-12-28T04:54:15.807Z,-0.35
2022-12-28T04:56:19.873Z,-0.38
2022-12-28T04:58:21.719Z,-0.40
2022-12-28T05:00:23.647Z,-0.36
2022-12-28T05:02:26.588Z,-0.48
2022-12-28T05:04:29.600Z,-0.51
2022-12-28T05:06:31.585Z,-0.55
2022-12-28T05:08:35.362Z,-0.49
2022-12-28T05:10:38.238Z,-0.53
2022-12-28T05:12:40.162Z,-0.56
2022-12-28T05:14:42.469Z,-0.59
2022-12-28T05:16:44.382Z,-0.66
2022-12-28T05:18:46.350Z,-0.76
2022-12-28T05:20:48.318Z,-0.69
2022-12-28T05:22:50.252Z,-0.68
2022-12-28T05:24:52.131Z,-0.70
2022-12-28T05:26:55.295Z,-0.66
2022-12-28T05:28:57.480Z,-0.69
2022-12-28T05:31:05.279Z,-0.72
2022-12-28T05:33:07.203Z,-0.69
2022-12-28T05:35:09.732Z,-0.69
2022-12-28T05:37:15.731Z,-0.71
2022-12-28T05:39:22.129Z,-0.73
2022-12-28T05:41:28.663Z,-0.65
2022-12-28T05:43:30.708Z,-0.68
2022-12-28T05:45:32.938Z,-0.60
2022-12-28T05:47:34.857Z,-0.62
2022-12-28T05:49:36.670Z,-0.61
2022-12-28T05:51:40.151Z,-0.65
2022-12-28T05:53:42.957Z,-0.70
2022-12-28T05:55:44.898Z,-0.69
2022-12-28T05:57:46.856Z,-0.64
2022-12-28T05:59:48.772Z,-0.70
2022-12-28T06:01:50.974Z,-0.73
2022-12-28T06:03:57.439Z,-0.76
2022-12-28T06:06:11.048Z,-0.75
2022-12-28T06:08:16.060Z,-0.75
2022-12-28T06:10:20.197Z,-0.84
2022-12-28T06:12:22.109Z,-0.75
2022-12-28T06:14:24.138Z,-0.73
2022-12-28T06:16:31.535Z,-0.75
2022-12-28T06:18:34.141Z,-0.62
2022-12-28T06:20:35.965Z,-0.61
2022-12-28T06:22:37.930Z,-0.55
2022-12-28T06:24:40.832Z,-0.52
2022-12-28T06:26:42.955Z,-0.51
2022-12-28T06:28:45.789Z,-0.49
2022-12-28T06:30:52.320Z,-0.55
2022-12-28T06:32:57.094Z,-0.53
2022-12-28T06:34:59.962Z,-0.56
2022-12-28T06:37:04.412Z,-0.56
2022-12-28T06:39:09.262Z,-0.56
2022-12-28T06:41:15.115Z,-0.62
2022-12-28T06:43:18.274Z,-0.62
2022-12-28T06:45:20.254Z,-0.52
2022-12-28T06:47:22.201Z,-0.48
2022-12-28T06:49:26.123Z,-0.56
2022-12-28T06:51:30.427Z,-0.52
2022-12-28T06:53:35.330Z,-0.49
2022-12-28T06:55:37.324Z,-0.44
2022-12-28T06:57:39.292Z,-0.43
2022-12-28T06:59:41.260Z,-0.50
2022-12-28T07:01:46.973Z,-0.45
2022-12-28T07:03:51.419Z,-0.45
2022-12-28T07:05:53.336Z,-0.42
2022-12-28T07:07:56.258Z,-0.44
2022-12-28T07:10:00.178Z,-0.47
2022-12-28T07:12:02.144Z,-0.38
2022-12-28T07:14:06.225Z,-0.36
2022-12-28T07:16:12.030Z,-0.29
2022-12-28T07:18:15.068Z,-0.30
2022-12-28T07:20:17.171Z,-0.31
2022-12-28T07:22:19.079Z,-0.21
2022-12-28T07:24:23.069Z,-0.17
2022-12-28T07:26:28.205Z,-0.15
2022-12-28T07:28:30.171Z,-0.06
2022-12-28T07:30:32.177Z,-0.06
2022-12-28T07:32:37.434Z,-0.03
2022-12-28T07:34:39.416Z,-0.07
2022-12-28T07:36:41.655Z,-0.05
2022-12-28T07:38:44.393Z,0.01
2022-12-28T07:40:47.313Z,0.03
2022-12-28T07:42:49.254Z,0.08
2022-12-28T07:44:51.269Z,0.13
2022-12-28T07:46:54.156Z,0.09
2022-12-28T07:48:57.353Z,0.20
2022-12-28T07:51:16.438Z,0.17
2022-12-28T07:53:22.044Z,0.25
2022-12-28T07:55:25.128Z,0.27
2022-12-28T07:57:27.072Z,0.31
2022-12-28T07:59:31.152Z,0.36
2022-12-28T08:01:35.727Z,0.38
2022-12-28T08:03:38.539Z,0.45
2022-12-28T08:05:40.530Z,0.44
2022-12-28T08:07:42.419Z,0.45
2022-12-28T08:09:44.399Z,0.46
2022-12-28T08:11:49.065Z,0.49
2022-12-28T08:13:53.665Z,0.53
2022-12-28T08:15:57.956Z,0.60
2022-12-28T08:18:00.932Z,0.61
2022-12-28T08:20:03.206Z,0.71
2022-12-28T08:22:05.275Z,0.73
2022-12-28T08:24:09.086Z,0.95
2022-12-28T08:26:19.751Z,1.14
2022-12-28T08:28:21.814Z,1.22
2022-12-28T08:30:23.699Z,1.32
2022-12-28T08:32:25.625Z,1.46
2022-12-28T08:34:27.680Z,1.45
2022-12-28T08:36:30.339Z,1.54
2022-12-28T08:38:33.260Z,1.63
2022-12-28T08:40:35.202Z,1.76
2022-12-28T08:42:37.067Z,1.93
2022-12-28T08:44:38.930Z,2.13
2022-12-28T08:46:41.539Z,2.43
2022-12-28T08:48:44.287Z,2.63
2022-12-28T08:50:46.239Z,2.83
2022-12-28T08:52:48.256Z,2.93
2022-12-28T08:54:50.344Z,2.98
2022-12-28T08:56:53.692Z,3.04
2022-12-28T08:58:57.828Z,3.19
2022-12-28T09:01:20.191Z,3.26
2022-12-28T09:03:22.201Z,3.20
2022-12-28T09:05:24.073Z,3.20
2022-12-28T09:07:25.985Z,3.19
2022-12-28T09:09:29.957Z,3.09
2022-12-28T09:11:31.878Z,3.11
2022-12-28T09:13:36.965Z,3.12
2022-12-28T09:15:39.975Z,3.11
2022-12-28T09:17:42.004Z,3.17
2022-12-28T09:19:43.942Z,3.26
2022-12-28T09:21:49.249Z,3.29
2022-12-28T09:23:52.580Z,3.30
2022-12-28T09:25:55.520Z,3.34
2022-12-28T09:27:59.453Z,3.45
2022-12-28T09:30:01.691Z,3.49
2022-12-28T09:32:03.735Z,3.60
2022-12-28T09:36:37.321Z,3.74
2022-12-28T09:38:39.282Z,3.80
2022-12-28T09:40:41.534Z,3.78
2022-12-28T09:42:43.961Z,3.87
2022-12-28T09:44:57.622Z,3.88
2022-12-28T09:47:10.552Z,3.95
2022-12-28T09:49:16.778Z,3.99
2022-12-28T09:51:24.432Z,4.08
2022-12-28T09:53:34.870Z,4.12
2022-12-28T09:55:40.272Z,4.16
2022-12-28T09:57:49.168Z,4.16
2022-12-28T09:59:53.545Z,4.23
2022-12-28T10:01:59.255Z,4.20
2022-12-28T10:04:02.434Z,4.24
2022-12-28T10:06:12.500Z,4.35
2022-12-28T10:08:19.382Z,4.29
2022-12-28T10:10:23.922Z,4.33
2022-12-28T10:12:30.286Z,4.32
2022-12-28T10:14:36.045Z,4.37
2022-12-28T10:16:42.847Z,4.34
2022-12-28T10:18:50.562Z,4.30
2022-12-28T10:20:55.239Z,4.29
2022-12-28T10:22:59.738Z,4.27
2022-12-28T10:25:01.657Z,4.27
2022-12-28T10:27:06.853Z,4.19
2022-12-28T10:29:15.186Z,4.25
2022-12-28T10:31:34.099Z,4.20
2022-12-28T10:33:41.786Z,4.20
2022-12-28T10:35:50.709Z,4.26
2022-12-28T10:38:00.073Z,4.25
2022-12-28T10:40:07.019Z,4.23
2022-12-28T10:42:21.132Z,4.25
2022-12-28T10:44:39.352Z,4.22
2022-12-28T10:46:56.541Z,4.27
2022-12-28T10:49:03.582Z,4.23
2022-12-28T10:51:16.267Z,4.27
2022-12-28T10:53:40.620Z,4.22
2022-12-28T10:55:43.637Z,4.27
2022-12-28T10:58:18.993Z,4.21
2022-12-28T11:00:23.370Z,4.27
2022-12-28T11:02:30.492Z,4.17
2022-12-28T11:04:32.544Z,4.13
2022-12-28T11:06:37.160Z,4.09
2022-12-28T11:08:40.035Z,4.11
2022-12-28T11:10:42.155Z,4.07
2022-12-28T11:12:45.712Z,4.01
2022-12-28T11:14:48.933Z,3.96
2022-12-28T11:16:53.481Z,3.92
2022-12-28T11:18:57.676Z,3.90
2022-12-28T11:20:59.664Z,3.88
2022-12-28T11:23:06.997Z,3.86
2022-12-28T11:25:09.448Z,3.81
2022-12-28T11:27:16.551Z,3.79
2022-12-28T11:29:20.672Z,3.81
2022-12-28T11:31:31.376Z,3.77
2022-12-28T11:33:42.534Z,3.73
2022-12-28T11:35:57.499Z,3.76
2022-12-28T11:38:03.962Z,3.79
2022-12-28T11:40:06.438Z,3.87
2022-12-28T11:44:31.108Z,3.88
2022-12-28T11:46:40.713Z,3.92
2022-12-28T11:48:42.695Z,3.93
2022-12-28T11:50:53.114Z,3.98
2022-12-28T11:52:55.066Z,3.95
2022-12-28T11:55:03.064Z,3.95
2022-12-28T11:57:05.724Z,4.04
2022-12-28T11:59:23.964Z,3.94
2022-12-28T12:01:30.015Z,3.95
2022-12-28T12:03:59.577Z,3.96
2022-12-28T12:06:01.520Z,3.93
2022-12-28T12:08:16.759Z,3.96
2022-12-28T12:10:30.776Z,4.02
2022-12-28T12:12:35.986Z,4.06
2022-12-28T12:14:45.969Z,4.02
2022-12-28T12:17:10.109Z,4.09
2022-12-28T12:19:24.012Z,4.11
2022-12-28T12:21:46.075Z,4.08
2022-12-28T12:23:57.037Z,4.09
2022-12-28T12:26:10.786Z,4.12
2022-12-28T12:28:33.729Z,4.18
2022-12-28T12:30:36.614Z,4.21
2022-12-28T12:33:02.526Z,4.12
2022-12-28T12:35:07.755Z,4.14
2022-12-28T12:37:43.663Z,4.12
2022-12-28T12:39:48.551Z,4.15
2022-12-28T12:42:04.768Z,4.12
2022-12-28T12:44:06.662Z,4.12
2022-12-28T12:46:39.360Z,4.12
2022-12-28T12:49:15.879Z,4.14
2022-12-28T12:51:37.567Z,4.20
2022-12-28T12:53:51.142Z,4.16
2022-12-28T12:56:12.187Z,4.19
2022-12-28T12:58:22.023Z,4.26
2022-12-28T13:00:24.730Z,4.18
2022-12-28T13:02:45.569Z,4.22
2022-12-28T13:04:49.462Z,4.22
2022-12-28T13:06:59.439Z,4.14
2022-12-28T13:09:05.890Z,4.18
2022-12-28T13:11:15.446Z,4.21
2022-12-28T13:13:33.523Z,4.23
2022-12-28T13:15:36.827Z,4.23
2022-12-28T13:17:38.841Z,4.27
2022-12-28T13:19:40.890Z,4.22
2022-12-28T13:21:45.859Z,4.28
2022-12-28T13:23:48.952Z,4.30
2022-12-28T13:25:55.191Z,4.33
2022-12-28T13:28:03.118Z,4.29
2022-12-28T13:30:18.267Z,4.26
2022-12-28T13:32:38.724Z,4.12
2022-12-28T13:34:49.710Z,4.18
2022-12-28T13:37:00.752Z,4.18
2022-12-28T13:39:10.710Z,4.04
2022-12-28T13:41:26.042Z,4.00
2022-12-28T13:44:01.512Z,4.02
2022-12-28T13:46:09.267Z,3.98
2022-12-28T13:48:11.863Z,3.94
2022-12-28T13:50:18.669Z,3.94
2022-12-28T13:52:52.517Z,3.94
2022-12-28T13:54:59.142Z,3.98
2022-12-28T13:57:28.331Z,3.93
2022-12-28T13:59:23.945Z,3.92
2022-12-28T14:01:32.306Z,3.85
2022-12-28T14:03:41.413Z,3.84
2022-12-28T14:05:50.905Z,3.81
2022-12-28T14:07:55.200Z,3.81
2022-12-28T14:09:57.559Z,3.81
2022-12-28T14:12:00.707Z,3.76
2022-12-28T14:14:04.213Z,3.77
2022-12-28T14:16:07.771Z,3.76
2022-12-28T14:18:15.313Z,3.79
2022-12-28T14:20:18.466Z,3.93
2022-12-28T14:22:37.815Z,3.86
2022-12-28T14:25:04.404Z,3.89
2022-12-28T14:27:06.375Z,3.81
2022-12-28T14:29:21.533Z,3.75
2022-12-28T14:31:32.387Z,3.69
2022-12-28T14:33:50.641Z,3.65
2022-12-28T14:35:58.274Z,3.66
2022-12-28T14:38:01.201Z,3.70
2022-12-28T14:40:05.563Z,3.73
2022-12-28T14:42:20.570Z,3.74
2022-12-28T14:44:36.858Z,3.73
2022-12-28T14:46:41.464Z,3.73
2022-12-28T14:48:45.188Z,3.74
2022-12-28T14:50:59.280Z,3.73
2022-12-28T14:53:21.439Z,3.79
2022-12-28T14:55:33.427Z,3.79
2022-12-28T14:57:44.476Z,3.81
2022-12-28T15:00:11.134Z,3.82
2022-12-28T15:02:52.077Z,3.82
2022-12-28T15:05:00.435Z,3.79
2022-12-28T15:07:04.683Z,3.84
2022-12-28T15:09:08.626Z,3.86
2022-12-28T15:11:14.480Z,3.66
2022-12-28T15:13:18.061Z,3.64
2022-12-28T15:15:20.875Z,3.56
2022-12-28T15:17:26.791Z,3.57
2022-12-28T15:19:31.744Z,3.62
2022-12-28T15:21:33.691Z,3.86
2022-12-28T15:23:35.726Z,3.89
2022-12-28T15:25:37.739Z,3.89
2022-12-28T15:27:40.657Z,3.88
2022-12-28T15:32:04.964Z,3.98
2022-12-28T15:34:07.953Z,4.07
2022-12-28T15:36:21.443Z,4.07
2022-12-28T15:38:23.377Z,4.04
2022-12-28T15:40:25.351Z,4.02
2022-12-28T15:42:27.584Z,4.12
2022-12-28T15:44:29.644Z,4.18
2022-12-28T15:46:32.035Z,4.15
2022-12-28T15:48:35.272Z,4.18
2022-12-28T15:50:37.223Z,4.14
2022-12-28T15:52:39.265Z,4.24
2022-12-28T15:54:46.750Z,4.21
2022-12-28T15:56:54.482Z,4.31
2022-12-28T15:58:58.786Z,4.28
2022-12-28T16:01:01.013Z,4.22
2022-12-28T16:03:03.441Z,4.20
2022-12-28T16:05:07.027Z,4.24
2022-12-28T16:07:10.180Z,4.34
2022-12-28T16:09:13.369Z,4.29
2022-12-28T16:11:17.860Z,4.27
2022-12-28T16:13:19.861Z,4.27
2022-12-28T16:15:22.945Z,4.31
2022-12-28T16:17:24.929Z,4.29
2022-12-28T16:19:26.914Z,4.25
2022-12-28T16:21:29.870Z,4.28
2022-12-28T16:23:33.853Z,4.35
2022-12-28T16:25:37.962Z,4.39
2022-12-28T16:27:39.927Z,4.41
2022-12-28T16:29:42.055Z,4.42
2022-12-28T16:31:45.278Z,4.43
2022-12-28T16:33:47.258Z,4.45
2022-12-28T16:35:51.884Z,4.44
2022-12-28T16:37:57.911Z,4.48
2022-12-28T16:40:00.001Z,4.41
2022-12-28T16:42:02.024Z,4.46
2022-12-28T16:44:12.515Z,4.50
2022-12-28T16:46:14.918Z,4.44
2022-12-28T16:48:17.092Z,4.50
2022-12-28T16:50:19.068Z,4.50
2022-12-28T16:52:21.039Z,4.56
2022-12-28T16:54:26.404Z,4.54
2022-12-28T16:56:28.381Z,4.51
2022-12-28T16:58:36.457Z,4.51
2022-12-28T17:00:38.443Z,4.51
2022-12-28T17:02:41.457Z,4.46
2022-12-28T17:04:44.175Z,4.61
2022-12-28T17:06:47.056Z,4.60
2022-12-28T17:08:50.966Z,4.52
2022-12-28T17:10:53.002Z,4.72
2022-12-28T17:12:54.933Z,4.75
2022-12-28T17:15:03.219Z,4.71
2022-12-28T17:17:08.248Z,4.66
2022-12-28T17:19:12.350Z,4.60
2022-12-28T17:21:15.395Z,4.66
2022-12-28T17:23:18.354Z,4.70
2022-12-28T17:25:21.396Z,4.91
2022-12-28T17:27:23.309Z,4.80
2022-12-28T17:29:25.262Z,4.80
2022-12-28T17:31:29.333Z,4.92
2022-12-28T17:33:37.111Z,4.85
2022-12-28T17:35:41.512Z,4.78
2022-12-28T17:37:46.804Z,4.79
2022-12-28T17:39:48.850Z,4.90
2022-12-28T17:41:50.890Z,4.84
2022-12-28T17:43:56.784Z,4.77
2022-12-28T17:46:01.869Z,4.82
2022-12-28T17:48:04.632Z,4.78
2022-12-28T17:50:07.547Z,4.81
2022-12-28T17:52:09.549Z,4.76
2022-12-28T17:54:14.569Z,4.82
2022-12-28T17:56:16.943Z,4.83
2022-12-28T17:58:18.926Z,4.84
2022-12-28T18:00:22.199Z,4.86
2022-12-28T18:02:24.524Z,4.89
2022-12-28T18:04:26.946Z,4.79
2022-12-28T18:06:29.092Z,4.87
2022-12-28T18:08:31.283Z,4.85
2022-12-28T18:10:34.473Z,4.82
2022-12-28T18:12:36.511Z,4.92
2022-12-28T18:14:38.556Z,4.92
2022-12-28T18:16:40.739Z,4.90
2022-12-28T18:18:43.454Z,4.90
2022-12-28T18:20:46.209Z,4.94
2022-12-28T18:22:50.255Z,4.98
2022-12-28T18:24:53.865Z,4.98
2022-12-28T18:26:55.936Z,4.96
2022-12-28T18:28:58.290Z,4.94
2022-12-28T18:31:02.782Z,5.01
2022-12-28T18:33:05.085Z,4.93
2022-12-28T18:35:08.053Z,4.86
2022-12-28T18:37:16.123Z,4.94
2022-12-28T18:39:18.380Z,4.96
2022-12-28T18:41:21.547Z,5.04
2022-12-28T18:43:24.338Z,5.03
2022-12-28T18:45:26.369Z,5.02
2022-12-28T18:47:33.159Z,4.95
2022-12-28T18:49:40.186Z,5.08
2022-12-28T18:51:44.929Z,4.95
2022-12-28T18:53:47.580Z,4.80
2022-12-28T18:56:04.269Z,4.77
2022-12-28T18:58:07.587Z,4.80
2022-12-28T19:00:14.341Z,4.83
2022-12-28T19:02:19.773Z,4.85
2022-12-28T19:04:22.566Z,4.82
2022-12-28T19:06:26.918Z,4.76
2022-12-28T19:08:29.159Z,4.89
2022-12-28T19:10:31.210Z,4.91
2022-12-28T19:12:33.522Z,4.98
2022-12-28T19:14:36.981Z,4.96
2022-12-28T19:16:40.092Z,5.02
2022-12-28T19:18:42.179Z,5.03
2022-12-28T19:20:44.838Z,5.04
2022-12-28T19:22:47.535Z,5.09
2022-12-28T19:24:49.656Z,5.15
2022-12-28T19:26:53.584Z,5.06
2022-12-28T19:28:55.916Z,5.15
2022-12-28T19:31:04.811Z,5.09
2022-12-28T19:33:07.681Z,5.17
2022-12-28T19:35:09.983Z,5.14
2022-12-28T19:37:11.975Z,5.19
2022-12-28T19:39:15.396Z,5.07
2022-12-28T19:41:19.189Z,5.19
2022-12-28T19:43:21.773Z,5.20
2022-12-28T19:45:24.883Z,5.07
2022-12-28T19:47:28.088Z,5.16
2022-12-28T19:49:30.372Z,5.12
2022-12-28T19:51:34.498Z,5.14
2022-12-28T19:53:37.579Z,5.11
2022-12-28T19:55:40.880Z,5.10
2022-12-28T19:57:43.249Z,5.12
2022-12-28T19:59:47.083Z,5.06
2022-12-28T20:01:49.860Z,5.14
2022-12-28T20:04:00.231Z,5.11
2022-12-28T20:06:18.416Z,5.07
2022-12-28T20:08:20.350Z,5.13
2022-12-28T20:10:23.601Z,5.11
2022-12-28T20:12:25.775Z,5.13
2022-12-28T20:14:28.480Z,5.14
2022-12-28T20:16:35.005Z,5.11
2022-12-28T20:18:37.034Z,5.05
2022-12-28T20:21:09.286Z,5.05
2022-12-28T20:23:02.558Z,5.04
2022-12-28T20:25:14.942Z,5.06
2022-12-28T20:27:16.841Z,5.11
2022-12-28T20:29:19.860Z,5.02
2022-12-28T20:31:23.829Z,4.91
2022-12-28T20:33:25.933Z,4.82
2022-12-28T20:35:30.132Z,4.76
2022-12-28T20:37:32.377Z,4.76
2022-12-28T20:39:35.557Z,4.69
2022-12-28T20:41:56.599Z,4.85
2022-12-28T20:44:05.681Z,4.83
2022-12-28T20:46:12.233Z,4.83
2022-12-28T20:48:16.602Z,4.78
2022-12-28T20:50:19.037Z,4.88
2022-12-28T20:52:21.142Z,4.88
2022-12-28T20:54:24.115Z,4.91
2022-12-28T20:56:27.553Z,4.96
2022-12-28T20:58:29.677Z,4.86
2022-12-28T21:00:39.756Z,4.94
2022-12-28T21:02:42.099Z,4.94
2022-12-28T21:04:44.319Z,4.87
2022-12-28T21:06:46.322Z,4.89
2022-12-28T21:08:48.707Z,4.98
2022-12-28T21:10:51.868Z,4.94
2022-12-28T21:12:55.105Z,5.07
2022-12-28T21:14:58.043Z,5.03
2022-12-28T21:17:11.809Z,4.97
2022-12-28T21:20:11.386Z,4.95
2022-12-28T21:25:04.425Z,4.98
2022-12-28T21:27:26.609Z,4.94
2022-12-28T21:29:31.201Z,4.90
2022-12-28T21:31:33.353Z,4.89
2022-12-28T21:33:41.544Z,4.88
2022-12-28T21:35:44.560Z,4.88
2022-12-28T21:37:46.502Z,4.85
2022-12-28T21:39:49.468Z,4.84
2022-12-28T21:41:51.562Z,4.86
2022-12-28T21:43:53.492Z,4.82
2022-12-28T21:46:02.618Z,4.79
2022-12-28T21:48:05.158Z,4.78
2022-12-28T21:50:09.137Z,4.88
2022-12-28T21:52:11.057Z,4.90
2022-12-28T21:54:24.986Z,4.80
2022-12-28T21:56:27.861Z,4.81
2022-12-28T21:58:29.854Z,4.86
2022-12-28T22:00:54.095Z,4.86
2022-12-28T22:03:17.980Z,4.91
2022-12-28T22:05:38.795Z,4.86
2022-12-28T22:07:44.469Z,4.80
2022-12-28T22:10:08.942Z,4.80
2022-12-28T22:12:33.150Z,4.80
2022-12-28T22:14:36.148Z,4.81
2022-12-28T22:16:38.133Z,4.86
2022-12-28T22:21:05.448Z,4.82
2022-12-28T22:23:09.023Z,4.73
2022-12-28T22:25:15.804Z,4.88
2022-12-28T22:27:17.758Z,4.92
2022-12-28T22:29:24.418Z,4.89
2022-12-28T22:31:26.497Z,4.91
2022-12-28T22:33:28.569Z,4.88
2022-12-28T22:35:30.561Z,4.90
2022-12-28T22:37:34.523Z,4.91
2022-12-28T22:39:39.982Z,4.89
2022-12-28T22:41:45.062Z,4.86
2022-12-28T22:43:53.918Z,4.81
2022-12-28T22:46:02.422Z,4.91
2022-12-28T22:48:04.618Z,4.86
2022-12-28T22:50:08.259Z,4.88
2022-12-28T22:52:10.217Z,4.97
2022-12-28T22:54:12.296Z,4.87
2022-12-28T22:56:21.062Z,4.93
2022-12-28T22:58:23.247Z,5.05
2022-12-28T23:00:25.279Z,5.02
2022-12-28T23:02:29.651Z,4.96
2022-12-28T23:04:37.767Z,4.97
2022-12-28T23:06:39.693Z,5.03
2022-12-28T23:08:41.944Z,5.01
2022-12-28T23:11:31.821Z,4.94
2022-12-28T23:13:33.717Z,4.98
2022-12-28T23:15:35.585Z,4.93
2022-12-28T23:17:37.566Z,4.99
2022-12-28T23:19:58.324Z,4.99
2022-12-28T23:22:19.089Z,4.95
2022-12-28T23:24:40.714Z,4.94
2022-12-28T23:27:01.275Z,5.05
2022-12-28T23:29:03.399Z,5.05
2022-12-28T23:31:05.707Z,5.19
2022-12-28T23:33:09.226Z,5.13
2022-12-28T23:35:11.177Z,5.07
2022-12-28T23:37:14.157Z,5.18
2022-12-28T23:39:16.474Z,5.16
2022-12-28T23:41:36.907Z,5.19
2022-12-28T23:43:40.925Z,5.16
2022-12-28T23:45:42.891Z,5.15
2022-12-28T23:47:45.517Z,5.11
2022-12-28T23:49:48.537Z,5.12
2022-12-28T23:51:51.499Z,5.07
2022-12-28T23:53:53.549Z,5.07
2022-12-28T23:55:58.483Z,5.07
2022-12-28T23:58:00.379Z,5.10
